createdAt,value
2022-08-20T00:00:05.508Z,100772.72
2022-08-20T00:02:41.789Z,100764.13
2022-08-20T00:05:12.578Z,100748.31
2022-08-20T00:07:42.731Z,100779.84
2022-08-20T00:10:12.549Z,100776.25
2022-08-20T00:12:48.872Z,100770.75
2022-08-20T00:15:24.161Z,100778.44
2022-08-20T00:17:54.897Z,100782.13
2022-08-20T00:20:26.648Z,100780.38
2022-08-20T00:22:56.449Z,100778.78
2022-08-20T00:25:26.408Z,100774.50
2022-08-20T00:27:56.158Z,100778.84
2022-08-20T00:30:30.256Z,100778.97
2022-08-20T00:33:02.936Z,100780.66
2022-08-20T00:35:35.726Z,100785.84
2022-08-20T00:38:06.657Z,100769.81
2022-08-20T00:40:41.949Z,100787.06
2022-08-20T00:43:31.121Z,100792.47
2022-08-20T00:46:05.926Z,100777.06
2022-08-20T00:48:37.972Z,100794.66
2022-08-20T00:51:11.098Z,100791.28
2022-08-20T00:53:42.200Z,100802.28
2022-08-20T00:56:13.884Z,100784.25
2022-08-20T00:58:46.202Z,100794.53
2022-08-20T01:01:19.357Z,100782.41
2022-08-20T01:03:49.177Z,100737.88
2022-08-20T01:06:18.926Z,100782.34
2022-08-20T01:08:48.645Z,100803.78
2022-08-20T01:11:22.218Z,100805.50
2022-08-20T01:13:53.497Z,100805.47
2022-08-20T01:16:29.149Z,100789.94
2022-08-20T01:19:00.513Z,100813.16
2022-08-20T01:21:33.629Z,100807.94
2022-08-20T01:24:16.518Z,100818.25
2022-08-20T01:26:50.259Z,100809.97
2022-08-20T01:29:25.393Z,100813.34
2022-08-20T01:32:01.219Z,100814.31
2022-08-20T01:34:31.788Z,100809.88
2022-08-20T01:37:02.031Z,100804.63
2022-08-20T01:39:34.951Z,100812.16
2022-08-20T01:42:15.416Z,100811.28
2022-08-20T01:44:47.835Z,100803.63
2022-08-20T01:47:22.374Z,100812.31
2022-08-20T01:49:56.312Z,100813.28
2022-08-20T01:52:33.854Z,100821.84
2022-08-20T01:55:04.422Z,100821.94
2022-08-20T01:57:37.674Z,100810.00
2022-08-20T02:00:10.979Z,100815.16
2022-08-20T02:02:50.550Z,100807.69
2022-08-20T02:05:20.475Z,100810.09
2022-08-20T02:07:50.487Z,100811.72
2022-08-20T02:10:21.269Z,100821.25
2022-08-20T02:12:53.622Z,100802.28
2022-08-20T02:15:30.808Z,100824.53
2022-08-20T02:18:08.164Z,100817.59
2022-08-20T02:20:38.881Z,100826.94
2022-08-20T02:23:10.132Z,100825.94
2022-08-20T02:25:42.019Z,100823.19
2022-08-20T02:28:17.169Z,100827.66
2022-08-20T02:30:49.677Z,100792.66
2022-08-20T02:33:24.185Z,100829.50
2022-08-20T02:35:56.973Z,100825.13
2022-08-20T02:38:27.912Z,100829.38
2022-08-20T02:40:57.616Z,100824.13
2022-08-20T02:43:32.115Z,100797.59
2022-08-20T02:46:02.845Z,100826.03
2022-08-20T02:48:33.668Z,100806.22
2022-08-20T02:51:07.735Z,100813.00
2022-08-20T02:53:41.848Z,100818.09
2022-08-20T02:56:12.460Z,100827.66
2022-08-20T02:58:45.343Z,100798.41
2022-08-20T03:01:19.601Z,100811.13
2022-08-20T03:03:49.572Z,100801.91
2022-08-20T03:06:19.390Z,100788.22
2022-08-20T03:08:49.064Z,100818.09
2022-08-20T03:11:19.166Z,100817.38
2022-08-20T03:13:52.260Z,100819.97
2022-08-20T03:16:22.438Z,100820.13
2022-08-20T03:18:52.590Z,100824.41
2022-08-20T03:21:22.381Z,100824.50
2022-08-20T03:23:52.141Z,100788.78
2022-08-20T03:26:21.826Z,100822.81
2022-08-20T03:28:54.082Z,100821.75
2022-08-20T03:31:23.864Z,100816.63
2022-08-20T03:33:53.920Z,100820.06
2022-08-20T03:36:27.939Z,100815.69
2022-08-20T03:38:59.276Z,100827.03
2022-08-20T03:41:29.108Z,100830.59
2022-08-20T03:44:01.506Z,100832.38
2022-08-20T03:46:31.390Z,100835.84
2022-08-20T03:49:01.075Z,100834.22
2022-08-20T03:51:31.211Z,100845.41
2022-08-20T03:54:01.424Z,100851.59
2022-08-20T03:56:31.812Z,100852.50
2022-08-20T03:59:04.425Z,100834.47
2022-08-20T04:01:45.114Z,100847.47
2022-08-20T04:04:16.241Z,100833.81
2022-08-20T04:06:47.612Z,100857.91
2022-08-20T04:09:17.613Z,100853.47
2022-08-20T04:11:47.338Z,100862.22
2022-08-20T04:14:20.776Z,100855.16
2022-08-20T04:16:50.682Z,100865.56
2022-08-20T04:19:21.440Z,100862.31
2022-08-20T04:21:51.049Z,100868.38
2022-08-20T04:24:22.506Z,100866.63
2022-08-20T04:27:02.750Z,100862.44
2022-08-20T04:29:36.623Z,100870.75
2022-08-20T04:32:08.223Z,100877.75
2022-08-20T04:34:40.684Z,100867.53
2022-08-20T04:37:17.023Z,100876.19
2022-08-20T04:40:07.390Z,100865.91
2022-08-20T04:42:36.553Z,100877.81
2022-08-20T04:45:10.718Z,100882.88
2022-08-20T04:47:40.379Z,100871.94
2022-08-20T04:50:12.055Z,100882.97
2022-08-20T04:52:42.693Z,100858.34
2022-08-20T04:55:12.912Z,100892.63
2022-08-20T04:57:42.615Z,100891.78
2022-08-20T05:00:19.111Z,100874.94
2022-08-20T05:02:49.395Z,100890.66
2022-08-20T05:05:19.636Z,100871.72
2022-08-20T05:07:49.347Z,100883.72
2022-08-20T05:10:21.976Z,100884.81
2022-08-20T05:12:56.456Z,100904.56
2022-08-20T05:15:29.595Z,100883.06
2022-08-20T05:18:04.767Z,100893.09
2022-08-20T05:20:38.915Z,100895.66
2022-08-20T05:23:11.030Z,100895.66
2022-08-20T05:25:41.770Z,100894.69
2022-08-20T05:28:13.668Z,100895.56
2022-08-20T05:30:48.365Z,100892.00
2022-08-20T05:33:21.143Z,100898.09
2022-08-20T05:35:53.171Z,100908.47
2022-08-20T05:38:26.738Z,100900.53
2022-08-20T05:40:56.566Z,100910.09
2022-08-20T05:43:26.245Z,100901.53
2022-08-20T05:46:00.621Z,100904.97
2022-08-20T05:48:31.013Z,100893.94
2022-08-20T05:51:00.884Z,100910.31
2022-08-20T05:53:30.546Z,100902.63
2022-08-20T05:56:01.829Z,100918.06
2022-08-20T05:58:32.945Z,100905.03
2022-08-20T06:01:05.757Z,100918.75
2022-08-20T06:03:48.083Z,100916.19
2022-08-20T06:06:28.476Z,100924.81
2022-08-20T06:09:07.455Z,100931.81
2022-08-20T06:11:37.605Z,100902.53
2022-08-20T06:14:07.616Z,100923.06
2022-08-20T06:16:40.100Z,100915.13
2022-08-20T06:19:27.267Z,100873.22
2022-08-20T06:22:02.268Z,100909.09
2022-08-20T06:24:47.323Z,100921.19
2022-08-20T06:27:18.436Z,100925.22
2022-08-20T06:29:48.231Z,100898.56
2022-08-20T06:32:28.897Z,100912.78
2022-08-20T06:35:04.157Z,100921.31
2022-08-20T06:37:36.525Z,100918.59
2022-08-20T06:40:10.299Z,100920.97
2022-08-20T06:42:47.436Z,100927.81
2022-08-20T06:45:20.050Z,100924.16
2022-08-20T06:47:53.372Z,100926.69
2022-08-20T06:50:25.286Z,100930.97
2022-08-20T06:52:55.102Z,100935.22
2022-08-20T06:55:25.881Z,100924.63
2022-08-20T06:58:00.254Z,100921.88
2022-08-20T07:00:33.266Z,100932.19
2022-08-20T07:03:06.846Z,100926.25
2022-08-20T07:05:42.287Z,100928.94
2022-08-20T07:08:13.699Z,100931.47
2022-08-20T07:10:44.388Z,100940.72
2022-08-20T07:13:16.427Z,100926.69
2022-08-20T07:15:47.153Z,100934.47
2022-08-20T07:18:28.357Z,100947.22
2022-08-20T07:20:58.533Z,100939.00
2022-08-20T07:23:29.352Z,100941.56
2022-08-20T07:25:59.103Z,100954.72
2022-08-20T07:28:32.031Z,100948.22
2022-08-20T07:31:15.972Z,100946.09
2022-08-20T07:33:50.474Z,100948.34
2022-08-20T07:36:21.769Z,100943.34
2022-08-20T07:38:52.637Z,100952.88
2022-08-20T07:41:23.782Z,100951.06
2022-08-20T07:43:53.701Z,100942.19
2022-08-20T07:46:23.978Z,100954.34
2022-08-20T07:49:05.466Z,100949.16
2022-08-20T07:51:35.900Z,100961.34
2022-08-20T07:54:06.126Z,100968.22
2022-08-20T07:56:35.781Z,100952.75
2022-08-20T07:59:06.393Z,100960.47
2022-08-20T08:01:36.057Z,100974.16
2022-08-20T08:04:08.690Z,100968.78
2022-08-20T08:06:44.980Z,100965.84
2022-08-20T08:09:17.165Z,100977.56
2022-08-20T08:11:52.565Z,100973.91
2022-08-20T08:14:26.931Z,100975.47
2022-08-20T08:16:58.499Z,100971.66
2022-08-20T08:19:38.746Z,100977.63
2022-08-20T08:22:12.326Z,100974.13
2022-08-20T08:24:56.639Z,100983.69
2022-08-20T08:27:27.387Z,100989.47
2022-08-20T08:29:57.013Z,100989.88
2022-08-20T08:32:26.639Z,100976.41
2022-08-20T08:34:58.775Z,100989.06
2022-08-20T08:37:30.773Z,100987.31
2022-08-20T08:40:01.525Z,100990.78
2022-08-20T08:42:43.256Z,100974.41
2022-08-20T08:45:16.054Z,100990.78
2022-08-20T08:47:47.371Z,100983.47
2022-08-20T08:50:49.889Z,101001.91
2022-08-20T08:53:22.556Z,100995.47
2022-08-20T08:55:52.132Z,101004.22
2022-08-20T08:58:21.707Z,101011.13
2022-08-20T09:00:55.953Z,101015.47
2022-08-20T09:03:30.994Z,100980.31
2022-08-20T09:06:05.141Z,101011.84
2022-08-20T09:08:38.884Z,101019.63
2022-08-20T09:11:10.621Z,100998.16
2022-08-20T09:13:40.744Z,101015.94
2022-08-20T09:16:10.421Z,101028.59
2022-08-20T09:18:40.024Z,101023.50
2022-08-20T09:21:14.475Z,101007.91
2022-08-20T09:23:44.418Z,101026.56
2022-08-20T09:26:14.206Z,101026.88
2022-08-20T09:28:43.875Z,101027.66
2022-08-20T09:31:18.247Z,101034.34
2022-08-20T09:33:49.106Z,101016.41
2022-08-20T09:36:31.664Z,101037.09
2022-08-20T09:39:03.066Z,101017.41
2022-08-20T09:41:34.644Z,101032.38
2022-08-20T09:44:04.600Z,101033.91
2022-08-20T09:46:34.311Z,101028.44
2022-08-20T09:49:04.068Z,100943.94
2022-08-20T09:51:38.304Z,101034.22
2022-08-20T09:54:08.772Z,101028.72
2022-08-20T09:56:38.565Z,101027.56
2022-08-20T09:59:08.206Z,101023.53
2022-08-20T10:01:37.871Z,101017.25
2022-08-20T10:04:08.026Z,101016.75
2022-08-20T10:06:44.478Z,101025.81
2022-08-20T10:09:14.128Z,101017.56
2022-08-20T10:11:43.760Z,101021.78
2022-08-20T10:14:13.499Z,101021.91
2022-08-20T10:16:43.128Z,101021.69
2022-08-20T10:19:12.736Z,101024.44
2022-08-20T10:21:44.933Z,101024.31
2022-08-20T10:24:14.527Z,101028.50
2022-08-20T10:26:44.163Z,101043.81
2022-08-20T10:29:13.964Z,101012.41
2022-08-20T10:31:43.694Z,101026.41
2022-08-20T10:34:13.481Z,100978.34
2022-08-20T10:36:47.521Z,101012.81
2022-08-20T10:39:17.485Z,100999.03
2022-08-20T10:41:47.156Z,101018.34
2022-08-20T10:44:17.714Z,101013.53
2022-08-20T10:46:47.712Z,101014.19
2022-08-20T10:49:17.270Z,101005.41
2022-08-20T10:51:49.695Z,101002.84
2022-08-20T10:54:19.279Z,101024.91
2022-08-20T10:56:49.513Z,101030.34
2022-08-20T10:59:19.895Z,101023.91
2022-08-20T11:01:49.514Z,101006.78
2022-08-20T11:04:19.213Z,101014.75
2022-08-20T11:06:51.450Z,100997.34
2022-08-20T11:09:21.063Z,100972.78
2022-08-20T11:11:50.716Z,101004.81
2022-08-20T11:14:20.422Z,100998.81
2022-08-20T11:16:50.163Z,100994.81
2022-08-20T11:19:19.947Z,100995.34
2022-08-20T11:21:52.272Z,100989.09
2022-08-20T11:24:22.053Z,100914.59
2022-08-20T11:26:53.795Z,101014.50
2022-08-20T11:29:24.967Z,101020.06
2022-08-20T11:31:54.834Z,101008.97
2022-08-20T11:34:24.567Z,100937.97
2022-08-20T11:36:57.281Z,101008.50
2022-08-20T11:39:27.077Z,100996.97
2022-08-20T11:41:56.930Z,100999.66
2022-08-20T11:44:26.610Z,101012.00
2022-08-20T11:46:59.994Z,101002.41
2022-08-20T11:49:29.768Z,101010.94
2022-08-20T11:52:02.350Z,100930.53
2022-08-20T11:54:34.154Z,100982.28
2022-08-20T11:57:03.996Z,100885.94
2022-08-20T11:59:33.793Z,101014.44
2022-08-20T12:02:03.833Z,100977.09
2022-08-20T12:04:35.152Z,100967.81
2022-08-20T12:07:19.325Z,101017.03
2022-08-20T12:09:50.703Z,101020.22
2022-08-20T12:12:23.450Z,101014.28
2022-08-20T12:14:54.108Z,101018.25
2022-08-20T12:17:28.812Z,101022.25
2022-08-20T12:20:00.809Z,101026.63
2022-08-20T12:22:33.133Z,101011.81
2022-08-20T12:25:03.021Z,101019.47
2022-08-20T12:27:34.685Z,101006.22
2022-08-20T12:30:07.912Z,101020.09
2022-08-20T12:32:37.866Z,101015.56
2022-08-20T12:35:08.854Z,101018.00
2022-08-20T12:37:41.783Z,101019.34
2022-08-20T12:40:14.134Z,101019.41
2022-08-20T12:42:44.324Z,101012.56
2022-08-20T12:45:14.458Z,101012.75
2022-08-20T12:47:45.885Z,101013.66
2022-08-20T12:50:18.610Z,101013.50
2022-08-20T12:52:51.716Z,101007.97
2022-08-20T12:55:23.053Z,101010.19
2022-08-20T12:57:56.470Z,101011.69
2022-08-20T13:00:28.836Z,101007.69
2022-08-20T13:03:01.604Z,101002.97
2022-08-20T13:05:31.774Z,100993.50
2022-08-20T13:08:05.997Z,100998.63
2022-08-20T13:10:38.224Z,100997.97
2022-08-20T13:13:07.973Z,101003.72
2022-08-20T13:15:39.327Z,101000.16
2022-08-20T13:18:10.116Z,100993.53
2022-08-20T13:20:39.949Z,100971.47
2022-08-20T13:23:12.165Z,100990.00
2022-08-20T13:25:41.851Z,100988.81
2022-08-20T13:28:11.674Z,100994.25
2022-08-20T13:30:41.607Z,100942.19
2022-08-20T13:33:11.717Z,100979.75
2022-08-20T13:35:41.501Z,100980.75
2022-08-20T13:38:13.746Z,100989.34
2022-08-20T13:40:43.564Z,100981.06
2022-08-20T13:43:17.166Z,100984.97
2022-08-20T13:45:46.854Z,100983.13
2022-08-20T13:48:16.593Z,100987.28
2022-08-20T13:50:47.656Z,100963.69
2022-08-20T13:53:20.351Z,100974.25
2022-08-20T13:55:50.484Z,100967.88
2022-08-20T13:58:22.373Z,100964.59
2022-08-20T14:00:52.621Z,100926.22
2022-08-20T14:03:25.300Z,100977.94
2022-08-20T14:05:55.526Z,100972.34
2022-08-20T14:08:27.769Z,100973.28
2022-08-20T14:10:57.585Z,100947.34
2022-08-20T14:13:29.920Z,100963.59
2022-08-20T14:15:59.608Z,100959.22
2022-08-20T14:18:30.869Z,100956.66
2022-08-20T14:21:01.554Z,100975.63
2022-08-20T14:23:36.772Z,100968.28
2022-08-20T14:26:07.956Z,100967.41
2022-08-20T14:28:37.627Z,100966.84
2022-08-20T14:31:07.352Z,100973.66
2022-08-20T14:33:39.332Z,100953.34
2022-08-20T14:36:12.465Z,100967.31
2022-08-20T14:38:45.885Z,100969.56
2022-08-20T14:41:15.647Z,100976.38
2022-08-20T14:43:45.254Z,100964.25
2022-08-20T14:46:14.933Z,100950.75
2022-08-20T14:48:44.601Z,100970.03
2022-08-20T14:51:22.968Z,100973.31
2022-08-20T14:53:55.238Z,100978.31
2022-08-20T14:56:24.936Z,100963.59
2022-08-20T14:58:54.596Z,100973.72
2022-08-20T15:01:24.294Z,100967.38
2022-08-20T15:03:54.016Z,100966.53
2022-08-20T15:06:23.813Z,100974.19
2022-08-20T15:08:56.769Z,100980.63
2022-08-20T15:11:26.505Z,100966.63
2022-08-20T15:14:00.926Z,100970.47
2022-08-20T15:16:30.687Z,100965.69
2022-08-20T15:19:00.389Z,100969.63
2022-08-20T15:21:30.546Z,100974.91
2022-08-20T15:24:19.701Z,100927.53
2022-08-20T15:26:49.629Z,100985.81
2022-08-20T15:29:23.240Z,100990.22
2022-08-20T15:31:53.305Z,100986.94
2022-08-20T15:34:23.018Z,100987.56
2022-08-20T15:36:52.741Z,100983.81
2022-08-20T15:39:25.043Z,100976.22
2022-08-20T15:41:54.739Z,100990.06
2022-08-20T15:44:24.430Z,100815.75
2022-08-20T15:46:54.585Z,100980.84
2022-08-20T15:49:24.596Z,100985.84
2022-08-20T15:51:54.382Z,100998.78
2022-08-20T15:54:30.150Z,100993.53
2022-08-20T15:57:05.745Z,100987.66
2022-08-20T16:00:06.820Z,100993.59
2022-08-20T16:03:14.573Z,100992.75
2022-08-20T16:05:50.850Z,100996.25
2022-08-20T16:08:46.794Z,100980.72
2022-08-20T16:11:31.562Z,100988.88
2022-08-20T16:14:18.211Z,100995.91
2022-08-20T16:16:51.422Z,101000.16
2022-08-20T16:19:39.647Z,101000.97
2022-08-20T16:22:11.722Z,100986.50
2022-08-20T16:24:41.530Z,100993.22
2022-08-20T16:27:21.329Z,101015.03
2022-08-20T16:29:59.179Z,101002.84
2022-08-20T16:32:38.539Z,101018.75
2022-08-20T16:35:30.204Z,101024.00
2022-08-20T16:38:05.055Z,101011.06
2022-08-20T16:40:49.720Z,101019.34
2022-08-20T16:43:28.945Z,101020.44
2022-08-20T16:46:04.562Z,101020.66
2022-08-20T16:48:46.155Z,101027.69
2022-08-20T16:51:21.770Z,101024.28
2022-08-20T16:53:51.505Z,101003.31
2022-08-20T16:56:34.495Z,101025.59
2022-08-20T16:59:12.984Z,101034.47
2022-08-20T17:02:06.901Z,101033.75
2022-08-20T17:04:59.267Z,101022.75
2022-08-20T17:07:43.137Z,101029.91
2022-08-20T17:10:20.442Z,101030.03
2022-08-20T17:12:56.302Z,101039.47
2022-08-20T17:15:31.477Z,101041.81
2022-08-20T17:18:19.414Z,101037.56
2022-08-20T17:20:49.130Z,101036.69
2022-08-20T17:23:21.741Z,101029.06
2022-08-20T17:26:00.037Z,101035.91
2022-08-20T17:28:34.990Z,101002.94
2022-08-20T17:31:07.950Z,101037.88
2022-08-20T17:33:41.472Z,101040.59
2022-08-20T17:36:20.165Z,101037.06
2022-08-20T17:38:52.524Z,101034.63
2022-08-20T17:41:24.748Z,101044.13
2022-08-20T17:44:01.145Z,101047.22
2022-08-20T17:46:48.137Z,101032.81
2022-08-20T17:49:21.911Z,101026.78
2022-08-20T17:51:54.611Z,101033.22
2022-08-20T17:54:28.631Z,101040.84
2022-08-20T17:57:02.922Z,101048.69
2022-08-20T17:59:59.822Z,101054.84
2022-08-20T18:02:31.355Z,101032.72
2022-08-20T18:05:01.184Z,101048.09
2022-08-20T18:07:37.743Z,101053.34
2022-08-20T18:10:13.376Z,101049.31
2022-08-20T18:12:46.723Z,101041.25
2022-08-20T18:15:24.493Z,101055.75
2022-08-20T18:18:18.272Z,101059.66
2022-08-20T18:21:16.545Z,101063.59
2022-08-20T18:23:50.461Z,101067.28
2022-08-20T18:26:24.001Z,101057.78
2022-08-20T18:28:59.279Z,101065.72
2022-08-20T18:31:32.990Z,101077.22
2022-08-20T18:34:17.412Z,101074.88
2022-08-20T18:36:57.403Z,101061.06
2022-08-20T18:39:32.176Z,101067.28
2022-08-20T18:42:04.422Z,101083.84
2022-08-20T18:44:44.051Z,101077.13
2022-08-20T18:47:24.086Z,101083.25
2022-08-20T18:50:19.142Z,101073.44
2022-08-20T18:52:54.618Z,101084.63
2022-08-20T18:55:34.316Z,101082.91
2022-08-20T18:58:09.033Z,101088.41
2022-08-20T19:00:49.138Z,101094.66
2022-08-20T19:03:27.144Z,101077.00
2022-08-20T19:06:13.688Z,101085.72
2022-08-20T19:08:53.227Z,101093.72
2022-08-20T19:11:45.202Z,101089.59
2022-08-20T19:14:38.295Z,101081.22
2022-08-20T19:17:12.816Z,101091.81
2022-08-20T19:19:42.755Z,101104.16
2022-08-20T19:22:19.137Z,101080.22
2022-08-20T19:24:56.801Z,101083.81
2022-08-20T19:27:27.449Z,101091.97
2022-08-20T19:29:58.404Z,101088.56
2022-08-20T19:32:31.179Z,101090.72
2022-08-20T19:35:03.209Z,101086.09
2022-08-20T19:37:44.334Z,101093.03
2022-08-20T19:40:28.537Z,101093.47
2022-08-20T19:43:00.690Z,101095.38
2022-08-20T19:45:38.531Z,101099.72
2022-08-20T19:48:26.993Z,101086.81
2022-08-20T19:51:15.782Z,101103.34
2022-08-20T19:53:51.012Z,101100.66
2022-08-20T19:56:22.976Z,101102.53
2022-08-20T19:59:01.891Z,101107.84
2022-08-20T20:01:32.307Z,101101.34
2022-08-20T20:04:06.265Z,101113.41
2022-08-20T20:06:40.455Z,101110.78
2022-08-20T20:09:22.202Z,101117.75
2022-08-20T20:11:57.026Z,101111.00
2022-08-20T20:14:30.566Z,101120.66
2022-08-20T20:17:00.900Z,101112.31
2022-08-20T20:19:30.614Z,101107.25
2022-08-20T20:22:18.700Z,101103.88
2022-08-20T20:25:02.688Z,101099.66
2022-08-20T20:27:33.258Z,101098.88
2022-08-20T20:30:04.709Z,101103.25
2022-08-20T20:32:36.298Z,101105.16
2022-08-20T20:35:09.143Z,101099.94
2022-08-20T20:37:49.730Z,101105.22
2022-08-20T20:40:30.637Z,101109.66
2022-08-20T20:43:07.883Z,101113.50
2022-08-20T20:45:40.463Z,101119.66
2022-08-20T20:48:21.289Z,101108.50
2022-08-20T20:50:52.683Z,101113.69
2022-08-20T20:53:51.228Z,101095.59
2022-08-20T20:56:39.869Z,101109.53
2022-08-20T20:59:11.990Z,101105.31
2022-08-20T21:01:49.138Z,101104.56
2022-08-20T21:04:23.995Z,101107.16
2022-08-20T21:06:55.580Z,101109.00
2022-08-20T21:09:26.594Z,101118.66
2022-08-20T21:11:58.877Z,101115.22
2022-08-20T21:14:28.826Z,101115.28
2022-08-20T21:17:00.740Z,101107.59
2022-08-20T21:19:31.304Z,101121.50
2022-08-20T21:22:01.057Z,101125.91
2022-08-20T21:24:30.741Z,101125.91
2022-08-20T21:27:04.034Z,101129.66
2022-08-20T21:29:34.649Z,101123.88
2022-08-20T21:32:04.308Z,101134.28
2022-08-20T21:34:34.396Z,101124.91
2022-08-20T21:37:04.133Z,101137.06
2022-08-20T21:39:33.994Z,101121.56
2022-08-20T21:42:18.563Z,101123.31
2022-08-20T21:44:58.476Z,101121.63
2022-08-20T21:47:28.379Z,101121.53
2022-08-20T21:49:58.185Z,101122.31
2022-08-20T21:52:27.904Z,101125.84
2022-08-20T21:54:57.629Z,101128.44
2022-08-20T21:57:33.266Z,101116.44
2022-08-20T22:00:04.490Z,101130.16
2022-08-20T22:02:34.938Z,101134.59
2022-08-20T22:05:05.301Z,101134.72
2022-08-20T22:07:35.106Z,101145.06
2022-08-20T22:10:05.496Z,101137.47
2022-08-20T22:12:37.813Z,101129.75
2022-08-20T22:15:09.378Z,101116.91
2022-08-20T22:17:39.136Z,101133.16
2022-08-20T22:20:10.317Z,101115.09
2022-08-20T22:22:39.995Z,101133.09
2022-08-20T22:25:15.834Z,101131.53
2022-08-20T22:27:48.175Z,101122.03
2022-08-20T22:30:17.899Z,101075.72
2022-08-20T22:33:00.792Z,101124.69
2022-08-20T22:35:30.692Z,101127.25
2022-08-20T22:38:00.541Z,101129.00
2022-08-20T22:40:30.339Z,101129.09
2022-08-20T22:43:02.647Z,101125.63
2022-08-20T22:45:32.538Z,101123.94
2022-08-20T22:48:02.985Z,101123.97
2022-08-20T22:50:33.253Z,101114.50
2022-08-20T22:53:04.522Z,101087.97
2022-08-20T22:55:35.302Z,101096.66
2022-08-20T22:58:09.594Z,101113.81
2022-08-20T23:00:40.693Z,101116.50
2022-08-20T23:03:10.651Z,101125.16
2022-08-20T23:05:41.135Z,101116.59
2022-08-20T23:08:12.221Z,101114.91
2022-08-20T23:10:42.214Z,101114.06
2022-08-20T23:13:15.515Z,101112.34
2022-08-20T23:15:45.906Z,101109.78
2022-08-20T23:18:18.497Z,101095.19
2022-08-20T23:20:56.048Z,101099.47
2022-08-20T23:23:28.127Z,101096.91
2022-08-20T23:25:58.348Z,101089.97
2022-08-20T23:28:30.662Z,101096.84
2022-08-20T23:31:00.441Z,101084.84
2022-08-20T23:33:31.535Z,101083.97
2022-08-20T23:36:02.394Z,101086.56
2022-08-20T23:38:32.199Z,101092.63
2022-08-20T23:41:02.022Z,101091.78
2022-08-20T23:43:34.283Z,101078.03
2022-08-20T23:46:07.005Z,101079.81
2022-08-20T23:48:36.942Z,101093.50
2022-08-20T23:51:08.210Z,101094.38
2022-08-20T23:53:38.759Z,101094.44
2022-08-20T23:56:08.750Z,101085.91
2022-08-20T23:58:41.014Z,101091.00
